createdAt,value
2019-04-23T00:02:28.513Z,99.90
2019-04-23T00:04:53.094Z,99.90
2019-04-23T00:10:06.568Z,99.90
2019-04-23T00:15:07.427Z,99.90
2019-04-23T00:17:37.134Z,99.90
2019-04-23T00:20:12.585Z,99.90
2019-04-23T00:22:53.359Z,99.90
2019-04-23T00:25:38.041Z,99.90
2019-04-23T00:28:06.553Z,99.90
2019-04-23T00:30:45.359Z,99.90
2019-04-23T00:33:05.829Z,99.90
2019-04-23T00:35:38.654Z,99.90
2019-04-23T00:38:11.904Z,99.90
2019-04-23T00:40:39.086Z,99.90
2019-04-23T00:43:18.187Z,99.90
2019-04-23T00:45:44.506Z,99.90
2019-04-23T00:48:25.993Z,99.90
2019-04-23T00:53:19.209Z,99.90
2019-04-23T00:55:47.626Z,99.90
2019-04-23T00:58:21.250Z,99.90
2019-04-23T01:05:55.692Z,99.90
2019-04-23T01:08:38.811Z,99.90
2019-04-23T01:13:39.382Z,99.90
2019-04-23T01:16:05.666Z,99.90
2019-04-23T01:18:50.629Z,99.90
2019-04-23T01:20:54.816Z,99.90
2019-04-23T01:23:45.622Z,99.90
2019-04-23T01:26:33.055Z,99.90
2019-04-23T01:29:07.089Z,99.90
2019-04-23T01:31:41.070Z,99.90
2019-04-23T01:34:13.058Z,99.90
2019-04-23T01:36:37.713Z,99.90
2019-04-23T01:39:11.748Z,99.90
2019-04-23T01:41:49.232Z,99.90
2019-04-23T01:44:15.203Z,99.90
2019-04-23T01:46:49.441Z,99.90
2019-04-23T01:49:26.465Z,99.90
2019-04-23T01:54:17.806Z,99.90
2019-04-23T01:56:49.456Z,99.90
2019-04-23T01:59:26.251Z,99.90
2019-04-23T02:07:06.325Z,99.90
2019-04-23T02:09:51.588Z,99.90
2019-04-23T02:11:59.197Z,99.90
2019-04-23T02:14:29.673Z,99.90
2019-04-23T02:17:07.616Z,99.90
2019-04-23T02:19:42.862Z,99.90
2019-04-23T02:22:03.980Z,99.90
2019-04-23T02:24:43.012Z,99.90
2019-04-23T02:27:11.774Z,99.90
2019-04-23T02:29:59.198Z,99.90
2019-04-23T02:32:22.137Z,99.90
2019-04-23T02:34:57.860Z,99.90
2019-04-23T02:40:01.934Z,99.90
2019-04-23T02:42:47.119Z,99.90
2019-04-23T02:44:55.855Z,99.90
2019-04-23T02:50:08.852Z,99.90
2019-04-23T02:52:30.630Z,99.90
2019-04-23T02:55:10.833Z,99.90
2019-04-23T02:57:36.891Z,99.90
2019-04-23T03:02:40.788Z,99.90
2019-04-23T03:05:08.265Z,99.90
2019-04-23T03:10:07.820Z,99.90
2019-04-23T03:15:31.956Z,99.90
2019-04-23T03:21:00.396Z,99.90
2019-04-23T03:26:04.263Z,99.90
2019-04-23T03:28:27.361Z,99.90
2019-04-23T03:38:39.463Z,99.90
2019-04-23T03:41:10.762Z,99.90
2019-04-23T03:43:38.284Z,99.90
2019-04-23T03:46:17.802Z,99.90
2019-04-23T03:51:03.144Z,99.90
2019-04-23T03:53:45.413Z,99.90
2019-04-23T04:01:16.262Z,99.90
2019-04-23T04:06:37.656Z,99.90
2019-04-23T04:08:46.607Z,99.90
2019-04-23T04:11:14.329Z,99.90
2019-04-23T04:13:53.593Z,99.90
2019-04-23T04:16:21.840Z,99.90
2019-04-23T04:21:27.624Z,99.90
2019-04-23T04:24:03.254Z,99.90
2019-04-23T04:31:34.650Z,99.90
2019-04-23T04:36:29.805Z,99.90
2019-04-23T04:41:34.352Z,99.90
2019-04-23T04:44:17.265Z,99.90
2019-04-23T04:49:08.065Z,99.90
2019-04-23T04:54:09.398Z,99.90
2019-04-23T04:56:35.977Z,99.90
2019-04-23T05:01:37.365Z,99.90
2019-04-23T05:04:18.264Z,99.90
2019-04-23T05:06:56.612Z,99.90
2019-04-23T05:09:25.227Z,99.90
2019-04-23T05:14:13.323Z,99.90
2019-04-23T05:16:44.497Z,99.90
2019-04-23T05:24:21.827Z,99.90
2019-04-23T05:26:43.057Z,99.90
2019-04-23T05:31:51.520Z,99.90
2019-04-23T05:34:23.955Z,99.90
2019-04-23T05:37:01.586Z,99.90
2019-04-23T05:39:30.931Z,99.90
2019-04-23T05:41:53.784Z,99.90
2019-04-23T05:44:31.213Z,99.90
2019-04-23T05:47:07.261Z,99.90
2019-04-23T05:49:31.889Z,99.90
2019-04-23T05:52:01.816Z,99.90
2019-04-23T05:54:45.825Z,99.90
2019-04-23T05:57:01.774Z,99.90
2019-04-23T05:59:46.895Z,99.90
2019-04-23T06:02:04.811Z,99.90
2019-04-23T06:04:36.512Z,99.90
2019-04-23T06:07:25.023Z,99.90
2019-04-23T06:09:39.281Z,99.90
2019-04-23T06:12:06.990Z,99.90
2019-04-23T06:14:47.387Z,99.90
2019-04-23T06:17:15.182Z,99.90
2019-04-23T06:19:44.292Z,99.90
2019-04-23T06:24:45.043Z,99.90
2019-04-23T06:27:22.088Z,99.90
2019-04-23T06:29:49.571Z,99.90
2019-04-23T06:32:22.938Z,99.90
2019-04-23T06:34:53.031Z,99.90
2019-04-23T06:37:27.080Z,99.90
2019-04-23T06:39:55.145Z,99.90
2019-04-23T06:42:29.574Z,99.90
2019-04-23T06:44:58.257Z,99.90
2019-04-23T06:47:27.811Z,99.90
2019-04-23T06:52:43.756Z,99.90
2019-04-23T06:55:01.603Z,99.90
2019-04-23T06:57:25.581Z,99.90
2019-04-23T07:02:37.715Z,99.90
2019-04-23T07:10:07.251Z,99.90
2019-04-23T07:15:27.660Z,99.90
2019-04-23T07:17:39.617Z,99.90
2019-04-23T07:20:15.128Z,99.90
2019-04-23T07:22:54.657Z,99.90
2019-04-23T07:25:17.621Z,99.90
2019-04-23T07:28:06.906Z,99.90
2019-04-23T07:32:52.990Z,99.90
2019-04-23T07:35:16.084Z,99.90
2019-04-23T07:38:16.314Z,99.90
2019-04-23T07:43:18.446Z,99.90
2019-04-23T07:45:57.580Z,99.30
2019-04-23T07:50:55.140Z,97.60
2019-04-23T07:53:24.626Z,96.20
2019-04-23T07:56:02.509Z,94.50
2019-04-23T07:58:23.395Z,92.70
2019-04-23T08:06:01.086Z,85.60
2019-04-23T08:11:33.296Z,84.10
2019-04-23T08:18:57.738Z,78.90
2019-04-23T08:21:19.277Z,79.60
2019-04-23T08:24:00.301Z,81.00
2019-04-23T08:29:12.816Z,79.70
2019-04-23T08:31:43.826Z,80.30
2019-04-23T08:39:18.172Z,82.20
2019-04-23T08:42:02.002Z,83.70
2019-04-23T08:44:56.418Z,82.50
2019-04-23T08:49:44.208Z,86.30
2019-04-23T08:54:48.389Z,83.90
2019-04-23T08:57:08.741Z,82.70
2019-04-23T08:59:44.025Z,84.90
2019-04-23T09:04:49.968Z,88.70
2019-04-23T09:07:16.706Z,90.10
2019-04-23T09:09:55.189Z,90.20
2019-04-23T09:14:51.127Z,85.20
2019-04-23T09:17:24.764Z,89.60
2019-04-23T09:20:09.845Z,85.50
2019-04-23T09:24:55.763Z,90.40
2019-04-23T09:27:31.774Z,91.00
2019-04-23T09:30:02.683Z,89.40
2019-04-23T09:32:25.167Z,90.40
2019-04-23T09:38:07.089Z,90.90
2019-04-23T09:43:31.229Z,81.70
2019-04-23T09:48:41.200Z,87.90
2019-04-23T09:51:10.273Z,82.00
2019-04-23T09:53:37.907Z,78.30
2019-04-23T09:56:10.243Z,79.30
2019-04-23T09:58:34.598Z,76.20
2019-04-23T10:03:46.328Z,81.20
2019-04-23T10:06:16.136Z,81.40
2019-04-23T10:08:46.446Z,81.90
2019-04-23T10:11:11.724Z,76.50
2019-04-23T10:13:42.818Z,79.00
2019-04-23T10:16:15.746Z,78.80
2019-04-23T10:18:44.911Z,76.20
2019-04-23T10:21:15.511Z,74.50
2019-04-23T10:23:45.329Z,72.50
2019-04-23T10:26:16.308Z,70.30
2019-04-23T10:28:51.913Z,69.60
2019-04-23T10:31:22.882Z,69.90
2019-04-23T10:33:52.509Z,71.30
2019-04-23T10:36:25.894Z,72.60
2019-04-23T10:39:00.509Z,74.80
2019-04-23T10:41:25.733Z,74.00
2019-04-23T10:43:58.591Z,76.10
2019-04-23T10:47:06.754Z,74.80
2019-04-23T10:50:31.763Z,75.30
2019-04-23T10:52:20.186Z,73.60
2019-04-23T10:54:57.626Z,77.60
2019-04-23T10:57:16.713Z,75.30
2019-04-23T11:02:36.970Z,68.50
2019-04-23T11:07:30.864Z,70.20
2019-04-23T11:12:42.369Z,63.60
2019-04-23T11:20:14.902Z,59.40
2019-04-23T11:25:20.408Z,61.70
2019-04-23T11:27:46.986Z,60.00
2019-04-23T11:30:29.351Z,62.80
2019-04-23T11:32:54.291Z,61.70
2019-04-23T11:35:24.064Z,62.60
2019-04-23T11:40:23.252Z,67.60
2019-04-23T11:43:09.310Z,67.30
2019-04-23T11:45:32.484Z,65.00
2019-04-23T11:50:39.680Z,64.60
2019-04-23T11:50:59.847Z,66.50
2019-04-23T11:52:56.443Z,62.90
2019-04-23T11:55:43.097Z,66.10
2019-04-23T11:58:08.397Z,65.30
2019-04-23T12:00:44.720Z,64.20
2019-04-23T12:03:17.310Z,62.70
2019-04-23T12:06:12.134Z,62.20
2019-04-23T12:11:39.567Z,62.20
2019-04-23T12:14:15.999Z,67.40
2019-04-23T12:16:47.146Z,65.80
2019-04-23T12:19:32.881Z,65.80
2019-04-23T12:21:45.394Z,65.60
2019-04-23T12:24:39.452Z,63.80
2019-04-23T12:26:53.887Z,68.30
2019-04-23T12:29:23.745Z,68.40
2019-04-23T12:32:15.053Z,68.70
2019-04-23T12:34:49.471Z,69.20
2019-04-23T12:37:15.076Z,69.10
2019-04-23T12:39:43.999Z,66.50
2019-04-23T12:42:37.751Z,68.90
2019-04-23T12:44:47.798Z,71.50
2019-04-23T12:47:25.413Z,69.70
2019-04-23T12:50:18.901Z,70.00
2019-04-23T12:52:27.781Z,71.00
2019-04-23T12:55:05.316Z,71.50
2019-04-23T12:59:54.831Z,72.90
2019-04-23T13:02:33.434Z,71.80
2019-04-23T13:04:51.750Z,73.30
2019-04-23T13:07:36.994Z,71.40
2019-04-23T13:09:58.319Z,73.30
2019-04-23T13:20:15.679Z,70.70
2019-04-23T13:22:39.827Z,71.90
2019-04-23T13:25:09.584Z,75.60
2019-04-23T13:27:57.193Z,73.40
2019-04-23T13:30:23.331Z,70.00
2019-04-23T13:32:55.467Z,69.40
2019-04-23T13:37:58.947Z,67.00
2019-04-23T13:40:24.749Z,69.80
2019-04-23T13:43:07.404Z,67.60
2019-04-23T13:45:49.778Z,69.30
2019-04-23T13:48:03.437Z,66.00
2019-04-23T13:50:37.482Z,65.10
2019-04-23T13:55:21.746Z,66.60
2019-04-23T13:58:09.109Z,65.90
2019-04-23T14:00:44.715Z,60.40
2019-04-23T14:03:05.392Z,64.20
2019-04-23T14:06:01.733Z,67.40
2019-04-23T14:08:41.321Z,65.30
2019-04-23T14:11:06.919Z,63.30
2019-04-23T14:16:04.487Z,64.90
2019-04-23T14:21:17.175Z,66.80
2019-04-23T14:23:59.198Z,66.20
2019-04-23T14:28:43.577Z,65.20
2019-04-23T14:31:10.574Z,66.70
2019-04-23T14:33:52.677Z,67.10
2019-04-23T14:36:13.965Z,67.70
2019-04-23T14:41:23.468Z,70.90
2019-04-23T14:46:36.557Z,70.50
2019-04-23T14:56:29.951Z,70.60
2019-04-23T14:59:01.651Z,67.00
2019-04-23T15:01:49.712Z,68.00
2019-04-23T15:03:55.951Z,68.50
2019-04-23T15:06:50.941Z,70.80
2019-04-23T15:09:24.232Z,71.40
2019-04-23T15:11:36.819Z,71.30
2019-04-23T15:14:01.469Z,72.50
2019-04-23T15:16:37.895Z,73.50
2019-04-23T15:19:33.993Z,72.90
2019-04-23T15:24:30.361Z,74.00
2019-04-23T15:29:09.692Z,70.70
2019-04-23T15:34:23.492Z,72.20
2019-04-23T15:37:14.507Z,69.70
2019-04-23T15:39:31.527Z,72.50
2019-04-23T15:42:22.718Z,74.40
2019-04-23T15:44:49.083Z,72.30
2019-04-23T15:47:12.055Z,72.90
2019-04-23T15:49:36.366Z,71.10
2019-04-23T15:52:14.300Z,72.60
2019-04-23T15:54:54.952Z,75.20
2019-04-23T15:57:07.153Z,71.80
2019-04-23T15:59:40.655Z,71.70
2019-04-23T16:01:44.507Z,73.40
2019-04-23T16:04:16.589Z,75.90
2019-04-23T16:06:54.095Z,72.00
2019-04-23T16:09:54.114Z,74.30
2019-04-23T16:12:22.814Z,72.10
2019-04-23T16:15:06.486Z,74.30
2019-04-23T16:17:29.035Z,73.20
2019-04-23T16:22:39.556Z,73.70
2019-04-23T16:25:13.337Z,74.40
2019-04-23T16:27:49.069Z,73.70
2019-04-23T16:38:14.129Z,77.40
2019-04-23T16:40:33.226Z,74.90
2019-04-23T16:43:03.786Z,77.90
2019-04-23T16:45:40.205Z,73.70
2019-04-23T16:48:20.252Z,74.70
2019-04-23T16:50:57.167Z,74.70
2019-04-23T16:55:47.526Z,75.90
2019-04-23T16:58:21.491Z,77.30
2019-04-23T17:00:51.514Z,75.00
2019-04-23T17:03:23.425Z,76.90
2019-04-23T17:05:50.816Z,75.80
2019-04-23T17:08:35.556Z,76.00
2019-04-23T17:10:55.465Z,77.00
2019-04-23T17:13:20.160Z,75.80
2019-04-23T17:18:25.921Z,79.30
2019-04-23T17:20:53.082Z,79.20
2019-04-23T17:23:34.443Z,80.70
2019-04-23T17:25:57.263Z,81.30
2019-04-23T17:31:18.818Z,81.70
2019-04-23T17:33:35.654Z,82.70
2019-04-23T17:36:18.506Z,83.80
2019-04-23T17:41:19.353Z,85.10
2019-04-23T17:43:59.937Z,85.60
2019-04-23T17:46:21.843Z,85.30
2019-04-23T17:48:59.537Z,84.00
2019-04-23T17:51:26.618Z,86.90
2019-04-23T17:54:06.597Z,86.40
2019-04-23T17:56:36.721Z,86.40
2019-04-23T17:59:04.314Z,87.70
2019-04-23T18:02:12.815Z,88.50
2019-04-23T18:04:10.377Z,90.20
2019-04-23T18:09:15.176Z,91.10
2019-04-23T18:11:35.769Z,91.30
2019-04-23T18:14:08.267Z,91.50
2019-04-23T18:16:46.210Z,91.90
2019-04-23T18:19:12.656Z,92.10
2019-04-23T18:22:07.416Z,92.80
2019-04-23T18:24:41.237Z,93.50
2019-04-23T18:27:21.367Z,93.60
2019-04-23T18:29:54.895Z,93.90
2019-04-23T18:32:43.456Z,94.50
2019-04-23T18:37:30.003Z,95.50
2019-04-23T18:39:54.669Z,96.40
2019-04-23T18:42:40.817Z,97.00
2019-04-23T18:45:07.162Z,97.30
2019-04-23T18:47:40.469Z,97.70
2019-04-23T18:50:02.349Z,98.00
2019-04-23T18:52:53.188Z,98.40
2019-04-23T18:55:14.550Z,98.90
2019-04-23T18:57:40.308Z,99.30
2019-04-23T19:00:36.980Z,99.80
2019-04-23T19:02:51.791Z,99.90
2019-04-23T19:08:00.978Z,99.90
2019-04-23T19:10:56.112Z,99.90
2019-04-23T19:13:24.726Z,99.90
2019-04-23T19:15:50.529Z,99.90
2019-04-23T19:18:26.150Z,99.90
2019-04-23T19:21:00.926Z,99.90
2019-04-23T19:23:32.668Z,99.90
2019-04-23T19:25:53.604Z,99.90
2019-04-23T19:28:40.890Z,99.90
2019-04-23T19:31:18.712Z,99.90
2019-04-23T19:38:35.179Z,99.90
2019-04-23T19:41:12.849Z,99.90
2019-04-23T19:43:41.813Z,99.90
2019-04-23T19:46:34.855Z,99.90
2019-04-23T19:48:54.600Z,99.90
2019-04-23T19:51:16.924Z,99.90
2019-04-23T19:54:12.833Z,99.90
2019-04-23T19:56:36.544Z,99.90
2019-04-23T20:06:48.466Z,99.90
2019-04-23T20:11:32.735Z,99.90
2019-04-23T20:13:55.489Z,99.90
2019-04-23T20:21:32.586Z,99.90
2019-04-23T20:32:06.113Z,99.90
2019-04-23T20:36:52.878Z,99.90
2019-04-23T20:42:08.693Z,99.90
2019-04-23T20:44:46.956Z,99.90
2019-04-23T20:47:11.496Z,99.90
2019-04-23T20:49:43.202Z,99.90
2019-04-23T20:52:07.188Z,99.90
2019-04-23T20:54:48.956Z,99.90
2019-04-23T20:57:43.113Z,99.90
2019-04-23T21:00:06.765Z,99.90
2019-04-23T21:05:17.895Z,99.90
2019-04-23T21:10:30.702Z,99.90
2019-04-23T21:15:30.922Z,99.90
2019-04-23T21:20:35.436Z,99.90
2019-04-23T21:23:06.186Z,99.90
2019-04-23T21:25:30.475Z,99.90
2019-04-23T21:28:11.549Z,99.90
2019-04-23T21:30:58.521Z,99.90
2019-04-23T21:33:11.669Z,99.90
2019-04-23T21:41:30.356Z,99.90
2019-04-23T21:46:30.315Z,99.90
2019-04-23T21:53:55.406Z,99.90
2019-04-23T21:59:01.484Z,99.90
2019-04-23T22:04:15.663Z,99.90
2019-04-23T22:06:43.486Z,99.90
2019-04-23T22:14:17.064Z,99.90
2019-04-23T22:19:14.962Z,99.90
2019-04-23T22:21:50.190Z,99.90
2019-04-23T22:24:10.334Z,99.90
2019-04-23T22:26:48.864Z,99.90
2019-04-23T22:37:07.934Z,99.90
2019-04-23T22:39:25.454Z,99.90
2019-04-23T22:44:42.526Z,99.90
2019-04-23T22:47:00.667Z,99.90
2019-04-23T22:49:40.649Z,99.90
2019-04-23T22:54:41.905Z,99.90
2019-04-23T22:57:20.978Z,99.90
2019-04-23T22:59:54.400Z,99.90
2019-04-23T23:02:21.541Z,99.90
2019-04-23T23:05:04.182Z,99.90
2019-04-23T23:07:24.207Z,99.90
2019-04-23T23:12:20.897Z,99.90
2019-04-23T23:14:54.830Z,99.90
2019-04-23T23:17:24.736Z,99.90
2019-04-23T23:20:08.780Z,99.90
2019-04-23T23:22:27.306Z,99.90
2019-04-23T23:25:04.682Z,99.90
2019-04-23T23:27:32.382Z,99.90
2019-04-23T23:32:30.585Z,99.90
2019-04-23T23:35:24.555Z,99.90
2019-04-23T23:37:34.599Z,99.90
2019-04-23T23:40:17.045Z,99.90
2019-04-23T23:42:45.411Z,99.90
2019-04-23T23:45:21.655Z,99.90
2019-04-23T23:47:38.126Z,99.90
2019-04-23T23:50:17.828Z,99.90
2019-04-23T23:52:48.789Z,99.90
2019-04-23T23:55:16.569Z,99.90
2019-04-23T23:57:50.271Z,99.90
